Terminal Aerodrome Forecast
Issued by NWS

Home | Current Version | Previous Version | Text Only | Print | Product List | Glossary On
Versions: 1 2 3 4 5 6 7 8 9 10 11 12 13 14 15 16 17 18 19 20 21 22 23
000
FTUS44 KOHX 300951 AAA
TAFCKV
TAF AMD
KCKV 300951Z 3010/0106 17010G18KT P6SM BKN200 WS020/18040KT
     FM301200 18018G30KT P6SM VCTS BKN030CB BKN150
     FM302100 17019G32KT P6SM -SHRA VCTS OVC050CB
     FM010100 21015G25KT 3SM -TSRA BKN025CB OVC050
     FM010400 23012KT 6SM -SHRA OVC050=

USA.gov is the U.S. government's official web portal to all federal, state and local government web resources and services.